Time;durP1;ratioP1;P1;durP2;ratioP2;P2;SDS_P1;SDS_P2;PMS_P1;PMS_P2;Temp;Humidity;BMP_temperature;BMP_pressure;BME280_temperature;BME280_humidity;BME280_pressure;Samples;Min_cycle;Max_cycle;Signal;HPM_P1;HPM_P2
2021/04/09 00:00:48;;;;;;;26.33;12.50;;;;;;;4.40;81.33;100732.46;1695100;83;21251;-84
2021/04/09 00:03:17;;;;;;;31.07;13.33;;;;;;;4.20;81.79;100732.47;1697760;83;21288;-84
2021/04/09 00:05:47;;;;;;;28.67;13.13;;;;;;;4.16;82.09;100727.06;1704569;81;21211;-84
2021/04/09 00:08:13;;;;;;;33.67;14.87;;;;;;;3.92;82.86;100725.11;1700258;83;21193;-86
2021/04/09 00:10:39;;;;;;;24.57;12.60;;;;;;;4.04;82.51;100733.95;1672498;83;25949;-83
2021/04/09 00:13:07;;;;;;;32.03;13.85;;;;;;;4.03;82.27;100734.05;1671136;83;21320;-85
2021/04/09 00:15:38;;;;;;;33.10;14.18;;;;;;;4.01;82.44;100741.13;1683324;83;21213;-85
2021/04/09 00:18:07;;;;;;;37.63;14.47;;;;;;;3.87;82.85;100744.63;1707202;82;21285;-86
2021/04/09 00:20:37;;;;;;;34.18;15.20;;;;;;;3.77;83.20;100747.81;1706243;82;21169;-85
2021/04/09 00:23:04;;;;;;;36.93;15.18;;;;;;;3.90;82.89;100754.88;1703611;82;21176;-88
2021/04/09 00:25:31;;;;;;;41.55;16.50;;;;;;;3.85;82.74;100753.03;1688475;82;21221;-85
2021/04/09 00:28:00;;;;;;;41.58;16.42;;;;;;;3.87;82.65;100745.48;1706424;82;21230;-86
2021/04/09 00:30:27;;;;;;;34.45;16.25;;;;;;;3.72;82.68;100730.78;1705934;82;21169;-85
2021/04/09 00:32:53;;;;;;;37.03;16.55;;;;;;;3.71;82.72;100746.94;1707576;83;21224;-86
2021/04/09 00:35:23;;;;;;;32.77;16.10;;;;;;;3.83;82.50;100751.83;1712264;82;25277;-85
2021/04/09 00:37:53;;;;;;;47.08;17.90;;;;;;;3.56;83.32;100755.25;1684752;83;21189;-85
2021/04/09 00:40:22;;;;;;;40.12;17.80;;;;;;;3.62;83.06;100758.41;1704783;82;21292;-85
2021/04/09 00:42:53;;;;;;;42.80;16.95;;;;;;;3.68;82.90;100755.41;1707556;81;21198;-86
2021/04/09 00:45:21;;;;;;;44.33;18.25;;;;;;;3.56;83.03;100762.26;1709005;82;21183;-86
2021/04/09 00:47:50;;;;;;;39.13;18.30;;;;;;;3.58;82.88;100758.59;1700202;82;21239;-84
2021/04/09 00:50:18;;;;;;;40.35;18.50;;;;;;;3.54;82.82;100759.74;1709323;82;21212;-82
2021/04/09 00:52:45;;;;;;;41.30;18.35;;;;;;;3.52;82.56;100758.98;1685329;82;21255;-84
2021/04/09 00:55:13;;;;;;;41.95;17.73;;;;;;;3.64;82.42;100760.00;1681877;83;21190;-85
2021/04/09 00:57:42;;;;;;;42.40;18.40;;;;;;;3.65;81.87;100763.44;1708525;82;21028;-86
2021/04/09 01:00:12;;;;;;;34.90;15.78;;;;;;;3.67;81.70;100766.81;1681832;83;21178;-83
2021/04/09 01:02:38;;;;;;;40.98;17.30;;;;;;;3.70;81.44;100766.63;1703457;82;21258;-85
2021/04/09 01:05:09;;;;;;;44.03;17.93;;;;;;;3.69;81.24;100770.16;1708440;82;21270;-85
2021/04/09 01:07:41;;;;;;;36.33;16.65;;;;;;;3.66;81.09;100772.48;1706197;82;21142;-85
2021/04/09 01:10:08;;;;;;;36.73;16.32;;;;;;;3.67;80.54;100769.42;1713851;82;21210;-87
2021/04/09 01:12:36;;;;;;;40.17;17.12;;;;;;;3.59;80.30;100770.73;1707317;82;21135;-86
2021/04/09 01:15:04;;;;;;;41.63;18.45;;;;;;;3.55;80.30;100769.23;1709320;82;21203;-87
2021/04/09 01:18:12;;;;;;;43.80;17.87;;;;;;;3.57;80.15;100773.91;1722731;81;23222;-85
2021/04/09 01:20:57;;;;;;;36.03;15.10;;;;;;;3.46;80.05;100779.42;1732297;82;21192;-85
2021/04/09 01:23:54;;;;;;;40.00;16.42;;;;;;;3.44;79.75;100775.59;1713138;81;21206;-85
2021/04/09 01:27:11;;;;;;;38.63;15.75;;;;;;;3.50;79.51;100771.30;1726856;82;21227;-88
2021/04/09 01:30:04;;;;;;;;;;;;;;;3.54;79.37;100776.72;1692208;82;21272;-84
2021/04/09 01:32:30;;;;;;;30.23;13.13;;;;;;;3.62;78.91;100772.77;1741463;81;21079;-86
2021/04/09 01:35:07;;;;;;;37.28;15.75;;;;;;;3.70;78.39;100779.68;1698197;82;21226;-86
2021/04/09 01:37:47;;;;;;;34.23;14.90;;;;;;;3.64;78.37;100769.62;1723214;81;21203;-85
2021/04/09 01:40:21;;;;;;;34.58;14.80;;;;;;;3.77;78.11;100773.12;1726878;82;21221;-84
2021/04/09 01:42:53;;;;;;;40.73;15.35;;;;;;;3.76;78.13;100767.54;1711447;82;21106;-86
2021/04/09 01:45:21;;;;;;;31.50;14.28;;;;;;;3.79;77.85;100763.39;1713371;82;21238;-84
2021/04/09 01:47:51;;;;;;;36.98;14.10;;;;;;;3.89;77.64;100765.80;1730262;82;21691;-86
2021/04/09 01:50:17;;;;;;;39.15;15.23;;;;;;;3.89;77.31;100761.89;1721370;82;21076;-85
2021/04/09 01:52:47;;;;;;;36.48;14.50;;;;;;;3.86;77.15;100754.24;1700777;82;21221;-86
2021/04/09 01:55:13;;;;;;;36.00;14.85;;;;;;;3.89;76.85;100763.20;1703508;82;21217;-87
2021/04/09 01:57:46;;;;;;;42.48;14.85;;;;;;;3.83;76.80;100755.75;1738251;81;21602;-88
2021/04/09 02:00:27;;;;;;;35.52;14.40;;;;;;;3.85;76.79;100761.70;1711278;82;21208;-86
2021/04/09 02:02:55;;;;;;;34.25;13.90;;;;;;;3.83;76.47;100757.05;1710300;82;21150;-90
2021/04/09 02:05:29;;;;;;;34.38;13.62;;;;;;;3.91;76.36;100759.17;1670887;82;21753;-90
2021/04/09 02:08:05;;;;;;;33.73;13.70;;;;;;;3.94;76.10;100754.58;1717675;81;21221;-86
2021/04/09 02:10:32;;;;;;;38.25;13.83;;;;;;;3.99;76.04;100756.08;1714354;81;21206;-86
2021/04/09 02:13:01;;;;;;;32.48;12.80;;;;;;;3.94;75.97;100757.20;1695657;82;21623;-87
2021/04/09 02:15:32;;;;;;;31.87;13.48;;;;;;;4.04;75.76;100754.85;1675502;83;21051;-87
2021/04/09 02:18:01;;;;;;;32.05;13.55;;;;;;;4.05;75.43;100760.91;1708617;81;21684;-86
2021/04/09 02:20:27;;;;;;;36.23;12.80;;;;;;;4.10;75.34;100758.83;1659912;83;21420;-87
2021/04/09 02:22:56;;;;;;;35.75;13.60;;;;;;;4.11;74.83;100757.90;1710496;81;21377;-86
2021/04/09 02:25:24;;;;;;;33.18;13.55;;;;;;;4.12;74.97;100754.36;1709439;82;21203;-83
2021/04/09 02:27:53;;;;;;;35.73;13.93;;;;;;;4.11;74.57;100759.20;1723206;82;21198;-86
2021/04/09 02:30:21;;;;;;;34.60;13.58;;;;;;;4.13;74.75;100759.48;1704439;82;21418;-86
2021/04/09 02:32:50;;;;;;;35.30;13.85;;;;;;;4.12;74.58;100759.58;1706997;82;21225;-84
2021/04/09 02:35:17;;;;;;;36.03;13.88;;;;;;;4.19;74.12;100760.02;1708770;81;21233;-86
2021/04/09 02:37:46;;;;;;;34.90;13.10;;;;;;;4.06;73.95;100765.20;1708111;82;21185;-84
2021/04/09 02:40:16;;;;;;;30.50;12.85;;;;;;;4.09;73.93;100760.61;1708920;82;21181;-82
2021/04/09 02:42:46;;;;;;;33.33;13.15;;;;;;;4.02;73.81;100764.55;1715679;82;21155;-83
2021/04/09 02:45:16;;;;;;;31.80;13.05;;;;;;;3.99;73.84;100761.30;1704261;83;21624;-85
2021/04/09 02:47:44;;;;;;;35.98;13.43;;;;;;;3.93;73.69;100761.22;1707816;81;21581;-85
2021/04/09 02:50:31;;;;;;;32.50;12.63;;;;;;;3.97;74.01;100760.57;1714027;82;21209;-83
2021/04/09 02:53:11;;;;;;;31.12;12.45;;;;;;;4.01;73.75;100749.82;1707169;83;21300;-83
2021/04/09 02:55:40;;;;;;;32.98;11.88;;;;;;;4.04;73.85;100751.38;1706872;81;21261;-85
2021/04/09 02:58:07;;;;;;;30.52;12.60;;;;;;;4.02;73.48;100761.10;1675863;82;21201;-86
2021/04/09 03:00:36;;;;;;;35.95;12.82;;;;;;;3.99;73.40;100749.54;1709832;82;21585;-85
2021/04/09 03:03:06;;;;;;;31.85;12.73;;;;;;;3.97;73.45;100748.33;1706829;81;21214;-85
2021/04/09 03:05:34;;;;;;;30.17;12.30;;;;;;;3.97;73.56;100750.12;1675795;83;21213;-84
2021/04/09 03:08:02;;;;;;;30.10;12.28;;;;;;;3.94;73.38;100751.97;1708576;82;21247;-84
2021/04/09 03:10:31;;;;;;;32.88;12.75;;;;;;;3.82;73.51;100751.45;1682678;83;21588;-85
2021/04/09 03:13:00;;;;;;;27.60;11.63;;;;;;;3.85;73.39;100752.56;1705651;81;21054;-85
2021/04/09 03:15:37;;;;;;;30.55;11.55;;;;;;;3.79;73.55;100760.78;1703684;82;22322;-86
2021/04/09 03:18:12;;;;;;;31.52;11.40;;;;;;;3.76;73.74;100758.40;1709964;82;21620;-87
2021/04/09 03:20:38;;;;;;;31.62;11.50;;;;;;;3.78;73.34;100761.73;1699594;82;21228;-85
2021/04/09 03:23:09;;;;;;;29.67;11.93;;;;;;;3.70;73.54;100757.48;1679710;82;22744;-87
2021/04/09 03:25:37;;;;;;;28.25;11.15;;;;;;;3.69;73.69;100763.63;1703393;83;21256;-87
2021/04/09 03:28:09;;;;;;;27.60;11.22;;;;;;;3.65;73.78;100755.60;1707289;82;22393;-87
2021/04/09 03:30:36;;;;;;;32.10;11.95;;;;;;;3.70;73.57;100754.86;1714830;82;21572;-85
2021/04/09 03:33:07;;;;;;;30.45;11.95;;;;;;;3.71;73.57;100753.91;1685594;82;21256;-85
2021/04/09 03:35:37;;;;;;;26.57;12.30;;;;;;;3.73;73.59;100748.14;1709406;82;21209;-86
2021/04/09 03:38:08;;;;;;;26.48;11.78;;;;;;;3.70;73.75;100756.17;1668936;83;21201;-84
2021/04/09 03:40:40;;;;;;;32.48;11.45;;;;;;;3.62;73.77;100747.95;1709795;82;21704;-85
2021/04/09 03:43:10;;;;;;;31.30;12.05;;;;;;;3.58;73.82;100748.63;1712691;82;21704;-85
2021/04/09 03:45:42;;;;;;;30.25;11.70;;;;;;;3.63;73.86;100754.87;1714719;82;21181;-85
2021/04/09 03:48:10;;;;;;;29.75;11.57;;;;;;;3.56;73.72;100752.64;1706818;82;21182;-84
2021/04/09 03:50:40;;;;;;;28.32;11.80;;;;;;;3.53;73.82;100746.30;1683136;83;21166;-84
2021/04/09 03:53:08;;;;;;;33.42;11.53;;;;;;;3.49;73.73;100751.34;1709176;82;21194;-84
2021/04/09 03:55:42;;;;;;;29.80;11.68;;;;;;;3.57;73.82;100753.02;1659226;83;21197;-84
2021/04/09 03:58:11;;;;;;;28.02;11.88;;;;;;;3.46;73.83;100751.53;1707007;82;21225;-84
2021/04/09 04:00:39;;;;;;;29.65;12.15;;;;;;;3.46;73.92;100758.05;1714779;82;21305;-84
2021/04/09 04:03:06;;;;;;;;;;;;;;;3.36;74.04;100763.49;1731195;81;21154;-84
2021/04/09 04:05:35;;;;;;;30.77;11.48;;;;;;;3.40;73.95;100763.66;1707651;82;20586;-86
2021/04/09 04:08:06;;;;;;;28.50;11.97;;;;;;;3.28;74.32;100764.41;1702101;82;21181;-85
2021/04/09 04:10:33;;;;;;;35.35;12.00;;;;;;;3.35;74.09;100768.33;1706443;82;21187;-85
2021/04/09 04:13:01;;;;;;;31.48;12.65;;;;;;;3.24;74.52;100760.68;1707719;82;21223;-89
2021/04/09 04:15:28;;;;;;;29.12;12.05;;;;;;;3.31;74.25;100762.47;1706091;83;21445;-85
2021/04/09 04:17:58;;;;;;;27.37;11.05;;;;;;;3.21;74.12;100758.25;1693306;83;21210;-85
2021/04/09 04:20:27;;;;;;;29.90;11.70;;;;;;;3.34;74.21;100767.95;1674666;83;21182;-88
2021/04/09 04:22:54;;;;;;;26.97;11.60;;;;;;;3.45;74.03;100755.09;1700394;83;21631;-88
2021/04/09 04:25:20;;;;;;;34.88;12.03;;;;;;;3.39;73.92;100768.52;1701362;83;21659;-87
2021/04/09 04:27:49;;;;;;;31.43;11.60;;;;;;;3.47;73.87;100757.12;1667139;83;21961;-87
2021/04/09 04:30:17;;;;;;;28.95;11.48;;;;;;;3.36;73.91;100763.49;1696063;83;21214;-88
2021/04/09 04:32:48;;;;;;;27.00;11.70;;;;;;;3.45;73.80;100765.53;1697715;82;21641;-89
2021/04/09 04:35:15;;;;;;;30.85;12.30;;;;;;;3.47;73.68;100758.44;1697913;83;21222;-87
2021/04/09 04:37:46;;;;;;;26.77;11.80;;;;;;;3.42;73.62;100770.95;1719199;81;21263;-87
2021/04/09 04:40:16;;;;;;;31.70;12.40;;;;;;;3.48;73.49;100765.34;1696295;83;21596;-88
2021/04/09 04:42:42;;;;;;;29.52;12.95;;;;;;;3.51;73.43;100762.55;1707168;83;21217;-88
2021/04/09 04:45:12;;;;;;;33.02;11.48;;;;;;;3.39;73.55;100776.36;1672003;83;21176;-88
2021/04/09 04:47:39;;;;;;;30.32;12.13;;;;;;;3.38;73.67;100777.28;1698546;83;22295;-87
2021/04/09 04:50:09;;;;;;;;;;;;;;;3.36;73.78;100779.16;1705966;83;21678;-87
2021/04/09 04:52:38;;;;;;;27.50;10.70;;;;;;;3.45;73.47;100778.59;1700813;81;20301;-88
2021/04/09 04:55:09;;;;;;;28.60;11.40;;;;;;;3.57;73.36;100772.61;1705400;83;21657;-87
2021/04/09 04:57:35;;;;;;;29.48;11.65;;;;;;;3.59;73.24;100773.82;1711323;81;21213;-89
2021/04/09 05:00:03;;;;;;;31.00;12.37;;;;;;;3.70;73.25;100770.54;1698988;82;21174;-89
2021/04/09 05:02:29;;;;;;;26.42;11.97;;;;;;;3.71;73.06;100773.50;1693875;83;21678;-87
2021/04/09 05:04:55;;;;;;;30.47;11.63;;;;;;;3.88;72.77;100776.35;1666929;83;22983;-87
2021/04/09 05:07:21;;;;;;;30.70;11.97;;;;;;;3.94;72.13;100772.87;1701284;83;20972;-86
2021/04/09 05:09:48;;;;;;;32.37;12.00;;;;;;;3.87;72.45;100775.97;1698812;81;20956;-84
2021/04/09 05:12:13;;;;;;;30.45;11.48;;;;;;;3.96;72.00;100768.86;1652402;83;21190;-84
2021/04/09 05:14:39;;;;;;;28.40;12.33;;;;;;;3.89;72.02;100771.03;1709215;81;23188;-85
2021/04/09 05:17:07;;;;;;;28.87;11.93;;;;;;;3.98;71.88;100770.06;1712079;82;21397;-83
2021/04/09 05:19:36;;;;;;;;;;;;;;;4.10;71.58;100775.81;1711978;82;21597;-84
2021/04/09 05:22:03;;;;;;;23.00;10.70;;;;;;;4.10;71.20;100774.51;1711182;82;20854;-84
2021/04/09 05:24:34;;;;;;;25.57;11.50;;;;;;;4.09;71.20;100779.38;1704485;82;21674;-85
2021/04/09 05:27:02;;;;;;;27.65;12.13;;;;;;;4.29;71.26;100780.23;1706427;82;21177;-87
2021/04/09 05:29:31;;;;;;;;;;;;;;;4.34;71.01;100771.26;1710210;82;21564;-83
2021/04/09 05:31:59;;;;;;;26.77;11.73;;;;;;;4.44;70.88;100774.92;1710560;82;20316;-84
2021/04/09 05:34:30;;;;;;;30.50;12.05;;;;;;;4.43;70.29;100773.27;1701726;82;21252;-83
2021/04/09 05:36:58;;;;;;;24.95;11.25;;;;;;;3.98;70.90;100773.54;1710060;82;21682;-84
2021/04/09 05:39:28;;;;;;;30.23;12.20;;;;;;;4.08;70.59;100782.92;1679973;83;21230;-83
2021/04/09 05:41:56;;;;;;;33.05;13.15;;;;;;;3.98;71.26;100772.67;1709669;82;21221;-82
2021/04/09 05:44:24;;;;;;;33.50;12.80;;;;;;;4.07;71.16;100779.93;1709155;82;21169;-82
2021/04/09 05:46:53;;;;;;;29.40;13.13;;;;;;;4.28;71.00;100776.41;1704697;82;21224;-83
2021/04/09 05:49:19;;;;;;;29.02;13.38;;;;;;;4.27;70.79;100772.97;1705860;82;21249;-85
2021/04/09 05:51:50;;;;;;;28.47;12.82;;;;;;;4.34;70.86;100777.80;1646515;83;26067;-86
2021/04/09 05:54:17;;;;;;;28.00;12.73;;;;;;;4.56;70.25;100776.73;1701962;82;21196;-84
2021/04/09 05:56:48;;;;;;;31.12;12.53;;;;;;;4.59;69.73;100779.14;1705062;82;21191;-81
2021/04/09 05:59:16;;;;;;;27.42;12.00;;;;;;;4.64;69.87;100777.05;1704178;82;21640;-81
2021/04/09 06:01:44;;;;;;;29.50;12.80;;;;;;;4.77;69.69;100781.47;1683555;83;21201;-83
2021/04/09 06:04:10;;;;;;;30.35;13.53;;;;;;;4.74;69.37;100777.74;1711491;82;21225;-82
2021/04/09 06:06:39;;;;;;;28.10;12.97;;;;;;;4.79;69.18;100783.05;1678283;83;21406;-84
2021/04/09 06:09:07;;;;;;;29.55;13.00;;;;;;;4.72;69.51;100780.95;1707657;82;21229;-81
2021/04/09 06:11:35;;;;;;;29.00;13.58;;;;;;;4.86;68.94;100783.46;1708057;82;21173;-85
2021/04/09 06:14:02;;;;;;;;;;;;;;;4.90;69.11;100778.88;1685789;83;21695;-83
2021/04/09 06:16:32;;;;;;;;;;;;;;;5.15;68.96;100779.34;1703781;82;20231;-83
2021/04/09 06:19:02;;;;;;;27.82;12.65;;;;;;;5.12;68.26;100780.86;1674924;83;20277;-85
2021/04/09 06:21:30;;;;;;;29.50;13.45;;;;;;;5.14;67.84;100772.42;1715632;81;21236;-87
2021/04/09 06:24:00;;;;;;;27.73;12.93;;;;;;;5.24;68.12;100769.55;1704738;81;21214;-80
2021/04/09 06:26:27;;;;;;;29.77;13.25;;;;;;;5.45;68.03;100776.36;1704963;83;21181;-88
2021/04/09 06:28:55;;;;;;;30.62;13.53;;;;;;;5.58;66.93;100773.73;1694650;81;22273;-82
2021/04/09 06:31:23;;;;;;;27.98;13.00;;;;;;;5.51;66.99;100780.34;1709997;83;25194;-81
2021/04/09 06:33:49;;;;;;;26.82;13.22;;;;;;;5.69;66.94;100767.73;1696489;82;21736;-80
2021/04/09 06:36:15;;;;;;;26.50;12.88;;;;;;;5.82;66.82;100774.24;1622409;83;21700;-90
2021/04/09 06:38:40;;;;;;;30.25;13.60;;;;;;;5.82;65.60;100762.45;1699994;83;28863;-79
2021/04/09 06:41:08;;;;;;;23.65;12.20;;;;;;;5.84;66.18;100767.09;1708002;81;27425;-81
2021/04/09 06:43:43;;;;;;;26.33;12.90;;;;;;;5.93;65.44;100764.67;1667454;83;22022;-79
2021/04/09 06:46:14;;;;;;;25.95;12.68;;;;;;;6.04;65.28;100763.07;1701060;83;21189;-81
2021/04/09 06:48:42;;;;;;;22.37;11.75;;;;;;;6.07;64.53;100764.98;1699487;81;21214;-80
2021/04/09 06:51:12;;;;;;;23.65;12.03;;;;;;;6.14;64.07;100768.47;1703418;83;21249;-80
2021/04/09 06:53:46;;;;;;;24.10;12.35;;;;;;;6.07;64.63;100769.40;1699103;81;21189;-90
2021/04/09 06:56:15;;;;;;;21.60;12.10;;;;;;;6.28;64.50;100755.20;1701775;82;21217;-80
2021/04/09 06:58:42;;;;;;;24.32;11.97;;;;;;;6.39;63.74;100759.66;1702114;81;21719;-82
2021/04/09 07:01:11;;;;;;;21.33;12.05;;;;;;;6.22;63.23;100763.03;1670409;83;21696;-85
2021/04/09 07:03:42;;;;;;;25.88;12.85;;;;;;;6.02;62.83;100762.35;1705359;83;21234;-83
2021/04/09 07:06:13;;;;;;;24.85;12.10;;;;;;;6.21;63.16;100761.84;1698853;81;21249;-82
2021/04/09 07:08:43;;;;;;;20.50;11.00;;;;;;;6.30;62.58;100761.16;1696773;83;21731;-85
2021/04/09 07:11:16;;;;;;;21.50;11.80;;;;;;;6.37;62.31;100757.14;1697008;83;21090;-83
2021/04/09 07:13:49;;;;;;;24.07;12.33;;;;;;;6.60;62.20;100746.70;1666081;83;21214;-80
2021/04/09 07:16:15;;;;;;;20.43;11.05;;;;;;;6.69;61.95;100751.25;1689900;83;21221;-80
2021/04/09 07:18:55;;;;;;;21.50;11.12;;;;;;;6.87;61.60;100746.41;1666516;83;26797;-84
2021/04/09 07:21:34;;;;;;;24.87;11.63;;;;;;;6.86;60.62;100750.45;1668696;83;21238;-84
2021/04/09 07:24:17;;;;;;;20.17;10.65;;;;;;;6.86;60.53;100743.89;1709217;81;21210;-87
2021/04/09 07:26:53;;;;;;;19.42;9.65;;;;;;;6.78;59.37;100746.62;1701473;83;21234;-91
2021/04/09 07:29:40;;;;;;;19.30;9.58;;;;;;;6.79;58.45;100743.51;1699388;83;21207;-83
2021/04/09 07:32:17;;;;;;;18.00;9.35;;;;;;;6.92;58.74;100746.88;1699646;83;21691;-87
2021/04/09 07:35:04;;;;;;;22.48;9.48;;;;;;;7.14;58.62;100742.11;1701425;83;22322;-84
2021/04/09 07:37:56;;;;;;;26.27;10.80;;;;;;;7.10;56.84;100736.75;1703021;83;21229;-86
2021/04/09 07:40:33;;;;;;;38.85;11.88;;;;;;;7.04;56.05;100745.11;1689653;83;21293;-85
2021/04/09 07:43:03;;;;;;;21.35;10.08;;;;;;;7.28;56.54;100734.95;1704990;83;21234;-85
2021/04/09 07:45:34;;;;;;;21.02;9.95;;;;;;;7.40;56.02;100747.62;1701912;83;21197;-84
2021/04/09 07:48:07;;;;;;;38.17;12.05;;;;;;;7.40;54.91;100733.98;1693931;81;21315;-84
2021/04/09 07:50:40;;;;;;;45.38;13.25;;;;;;;7.60;54.96;100735.50;1698270;81;21217;-85
2021/04/09 07:53:12;;;;;;;27.02;10.32;;;;;;;7.58;55.23;100725.59;1697386;83;21206;-84
2021/04/09 07:55:44;;;;;;;20.20;9.18;;;;;;;7.78;53.96;100719.56;1669911;83;21316;-84
2021/04/09 07:58:23;;;;;;;18.25;8.55;;;;;;;7.70;53.60;100723.30;1697062;81;22077;-85
2021/04/09 08:00:52;;;;;;;20.95;9.43;;;;;;;7.67;52.76;100720.92;1621316;83;22193;-85
2021/04/09 08:03:40;;;;;;;17.80;8.70;;;;;;;7.98;53.52;100715.32;1708884;81;21186;-85
2021/04/09 08:06:12;;;;;;;18.55;8.58;;;;;;;7.92;51.49;100717.13;1701966;83;21229;-87
2021/04/09 08:09:00;;;;;;;16.67;7.60;;;;;;;7.72;51.41;100706.91;1691458;83;21285;-84
2021/04/09 08:11:36;;;;;;;15.80;7.55;;;;;;;7.94;51.24;100701.23;1669830;83;21649;-86
2021/04/09 08:14:25;;;;;;;16.45;7.92;;;;;;;8.05;50.51;100703.84;1698756;81;21246;-86
2021/04/09 08:16:58;;;;;;;13.08;7.97;;;;;;;8.04;50.50;100704.79;1702927;81;21214;-86
2021/04/09 08:19:25;;;;;;;14.23;7.42;;;;;;;7.86;50.51;100697.45;1692926;83;21186;-86
2021/04/09 08:21:57;;;;;;;16.23;8.05;;;;;;;8.11;50.50;100694.59;1705564;81;21257;-84
2021/04/09 08:24:32;;;;;;;15.30;7.80;;;;;;;7.99;50.70;100677.55;1696233;83;21557;-85
2021/04/09 08:27:00;;;;;;;16.80;7.65;;;;;;;8.18;50.32;100696.59;1671617;83;21226;-84
2021/04/09 08:29:31;;;;;;;16.50;7.95;;;;;;;8.32;50.12;100695.93;1702914;83;21549;-85
2021/04/09 08:31:57;;;;;;;16.97;8.20;;;;;;;8.25;49.63;100679.34;1668591;83;21274;-85
2021/04/09 08:34:24;;;;;;;15.03;7.67;;;;;;;8.21;49.67;100685.80;1709845;81;21189;-85
2021/04/09 08:36:53;;;;;;;18.52;8.58;;;;;;;8.44;49.94;100672.56;1707219;81;26808;-84
2021/04/09 08:39:24;;;;;;;16.07;8.43;;;;;;;8.37;49.19;100688.47;1693685;83;21232;-86
2021/04/09 08:41:56;;;;;;;12.23;6.87;;;;;;;8.50;48.85;100672.05;1708090;81;21214;-90
2021/04/09 08:44:27;;;;;;;16.25;6.83;;;;;;;8.72;48.07;100675.49;1670027;83;21233;-86
2021/04/09 08:46:56;;;;;;;12.65;7.00;;;;;;;8.77;47.35;100668.84;1702995;81;21284;-85
2021/04/09 08:49:27;;;;;;;16.07;7.22;;;;;;;8.57;46.71;100652.12;1701316;83;21175;-85
2021/04/09 08:52:02;;;;;;;15.93;7.60;;;;;;;8.42;46.18;100662.59;1668018;83;21194;-85
2021/04/09 08:54:30;;;;;;;13.68;7.12;;;;;;;8.73;46.57;100645.55;1696915;83;21221;-86
2021/04/09 08:57:01;;;;;;;13.20;6.85;;;;;;;8.41;45.01;100638.58;1664799;83;21198;-86
2021/04/09 08:59:44;;;;;;;10.75;5.80;;;;;;;8.50;44.06;100637.83;1697245;81;21320;-84
2021/04/09 09:02:24;;;;;;;14.03;6.75;;;;;;;8.49;43.82;100638.78;1668133;83;21205;-85
2021/04/09 09:05:09;;;;;;;11.70;6.15;;;;;;;8.43;44.88;100636.64;1705432;81;21600;-86
2021/04/09 09:07:49;;;;;;;12.68;6.50;;;;;;;8.76;44.70;100635.60;1701617;83;21177;-83
2021/04/09 09:10:36;;;;;;;11.22;5.58;;;;;;;8.96;44.62;100635.19;1702977;83;21214;-83
2021/04/09 09:13:28;;;;;;;10.05;5.55;;;;;;;9.04;42.10;100627.08;1705001;83;22309;-86
2021/04/09 09:16:03;;;;;;;13.18;6.08;;;;;;;9.04;42.10;100627.08;1697715;81;21249;-86
2021/04/09 09:18:36;;;;;;;15.45;5.90;;;;;;;8.91;42.06;100612.34;1669534;83;21206;-86
2021/04/09 09:21:24;;;;;;;12.37;6.50;;;;;;;9.09;42.47;100622.23;1697074;83;21214;-86
2021/04/09 09:24:17;;;;;;;14.07;6.22;;;;;;;9.15;42.38;100612.47;1695073;83;21079;-87
2021/04/09 09:26:49;;;;;;;13.43;6.65;;;;;;;9.03;41.70;100601.73;1705508;81;21213;-87
2021/04/09 09:29:32;;;;;;;13.08;6.25;;;;;;;9.38;42.89;100609.61;1702444;83;21142;-86
2021/04/09 09:32:08;;;;;;;12.40;5.62;;;;;;;9.60;42.25;100596.18;1699209;83;21366;-91
2021/04/09 09:34:41;;;;;;;11.65;5.80;;;;;;;9.88;41.51;100601.09;1697875;83;21193;-83
2021/04/09 09:37:20;;;;;;;13.35;6.25;;;;;;;9.77;41.27;100609.16;1669906;83;21167;-87
2021/04/09 09:40:06;;;;;;;10.43;6.20;;;;;;;9.89;41.16;100595.31;1689999;83;21207;-85
2021/04/09 09:42:42;;;;;;;12.98;6.35;;;;;;;9.78;40.48;100584.92;1701436;83;21186;-85
2021/04/09 09:45:13;;;;;;;13.03;6.42;;;;;;;10.03;40.35;100585.63;1697816;83;21203;-85
2021/04/09 09:47:41;;;;;;;15.70;6.60;;;;;;;10.01;39.74;100571.76;1665167;83;21228;-83
2021/04/09 09:50:17;;;;;;;11.88;5.60;;;;;;;10.04;40.04;100584.66;1699546;81;21239;-83
2021/04/09 09:53:17;;;;;;;;;;;;;;;;;;;;;
2021/04/09 09:55:34;;;;;;;12.15;6.08;;;;;;;10.23;39.80;100593.02;1676606;83;21183;-85
2021/04/09 09:58:12;;;;;;;12.37;5.90;;;;;;;9.85;39.00;100596.55;1700424;83;21193;-84
2021/04/09 10:01:00;;;;;;;12.20;5.65;;;;;;;9.53;39.05;100590.61;1692734;83;21234;-85
2021/04/09 10:03:40;;;;;;;15.98;5.87;;;;;;;9.84;39.19;100578.59;1702535;83;21230;-82
2021/04/09 10:06:13;;;;;;;13.25;5.75;;;;;;;9.70;40.08;100569.30;1699513;81;21217;-83
2021/04/09 10:08:44;;;;;;;11.63;5.87;;;;;;;9.71;38.79;100591.25;1706432;81;21245;-85
2021/04/09 10:11:20;;;;;;;15.40;6.85;;;;;;;9.82;38.90;100545.40;1704209;83;21425;-85
2021/04/09 10:13:49;;;;;;;13.60;6.67;;;;;;;9.89;39.99;100555.24;1696877;83;21372;-84
2021/04/09 10:16:25;;;;;;;13.38;6.35;;;;;;;9.83;39.94;100566.36;1697218;83;21211;-86
2021/04/09 10:19:02;;;;;;;14.60;6.50;;;;;;;10.12;39.97;100554.93;1658923;85;21242;-86
2021/04/09 10:21:35;;;;;;;10.68;6.10;;;;;;;10.24;39.50;100550.32;1682846;83;21212;-86
2021/04/09 10:24:20;;;;;;;11.80;5.95;;;;;;;10.54;38.69;100541.83;1680633;83;21239;-87
2021/04/09 10:27:06;;;;;;;11.90;5.70;;;;;;;10.44;38.21;100523.86;1683828;83;22211;-85
2021/04/09 10:29:35;;;;;;;12.68;5.40;;;;;;;10.50;38.48;100529.41;1683006;83;21245;-87
2021/04/09 10:32:04;;;;;;;10.25;5.25;;;;;;;10.50;37.48;100518.84;1685565;83;21222;-89
2021/04/09 10:34:32;;;;;;;11.30;5.95;;;;;;;10.73;37.69;100521.08;1683435;83;21221;-84
2021/04/09 10:37:03;;;;;;;12.50;5.20;;;;;;;10.72;37.80;100520.25;1683004;83;22078;-85
2021/04/09 10:39:31;;;;;;;10.35;5.30;;;;;;;10.67;37.43;100519.84;1682169;83;21246;-86
2021/04/09 10:42:02;;;;;;;14.63;5.60;;;;;;;10.41;37.63;100499.42;1682737;83;21239;-84
2021/04/09 10:44:31;;;;;;;14.63;5.50;;;;;;;10.69;37.59;100502.06;1681308;83;22154;-87
2021/04/09 10:47:07;;;;;;;11.33;5.15;;;;;;;10.66;37.27;100494.90;1688399;83;21235;-83
2021/04/09 10:49:41;;;;;;;10.20;5.25;;;;;;;10.40;37.27;100479.77;1661838;83;22106;-85
2021/04/09 10:52:12;;;;;;;10.95;5.75;;;;;;;10.33;37.17;100499.34;1684272;82;21246;-85
2021/04/09 10:54:51;;;;;;;10.28;5.03;;;;;;;10.57;37.09;100500.59;1681536;83;32777;-86
2021/04/09 10:57:18;;;;;;;12.53;4.87;;;;;;;10.74;36.86;100483.95;1683676;83;21056;-86
2021/04/09 10:59:53;;;;;;;10.88;5.75;;;;;;;10.86;36.64;100493.82;1680703;83;21202;-87
2021/04/09 11:02:21;;;;;;;12.05;5.30;;;;;;;10.51;36.99;100495.91;1681891;83;21222;-84
2021/04/09 11:04:59;;;;;;;12.30;5.55;;;;;;;10.50;36.85;100488.95;1683749;83;21304;-90
2021/04/09 11:07:46;;;;;;;;;;;;;;;10.33;36.93;100477.36;1691250;83;21151;-83
2021/04/09 11:10:36;;;;;;;10.00;5.80;;;;;;;10.28;36.92;100493.61;1682589;83;20261;-88
2021/04/09 11:13:08;;;;;;;10.15;5.65;;;;;;;10.58;37.48;100478.47;1641022;85;21158;-87
2021/04/09 11:15:43;;;;;;;14.28;5.72;;;;;;;10.76;36.87;100470.09;1666032;85;21200;-88
2021/04/09 11:18:13;;;;;;;12.75;6.40;;;;;;;10.86;37.62;100473.16;1694065;82;21218;-86
2021/04/09 11:20:46;;;;;;;11.03;5.58;;;;;;;10.77;36.95;100473.58;1689664;81;21237;-84
2021/04/09 11:23:14;;;;;;;9.45;5.45;;;;;;;10.97;37.22;100471.63;1697436;82;22034;-86
2021/04/09 11:25:47;;;;;;;12.35;5.40;;;;;;;11.26;37.07;100465.26;1693192;82;21208;-90
2021/04/09 11:28:29;;;;;;;10.38;5.17;;;;;;;11.56;36.63;100483.85;1700666;81;21824;-86
2021/04/09 11:30:59;;;;;;;10.20;5.17;;;;;;;11.25;35.77;100467.08;1705506;82;21258;-86
2021/04/09 11:33:38;;;;;;;11.03;5.65;;;;;;;11.38;35.64;100454.78;1671287;82;21246;-88
2021/04/09 11:36:22;;;;;;;10.88;5.75;;;;;;;11.70;35.30;100452.03;1689441;81;21217;-87
2021/04/09 11:39:08;;;;;;;11.40;6.12;;;;;;;11.63;34.72;100443.05;1680502;83;21202;-87
2021/04/09 11:41:41;;;;;;;12.73;6.17;;;;;;;11.76;35.17;100427.60;1701568;83;21258;-88
2021/04/09 11:44:39;;;;;;;14.98;6.70;;;;;;;11.86;35.37;100432.27;1703008;83;22189;-87